Yuendumu, Australia
Current Conditions -  °F | °C
As of 3:00 AM on Sunday 26 Oct 2014 (Local Time) from YBAS Reporting Station
Clear Clear  
Wind Chill: 82°   Ceiling: Unl
Heat Index: 82°   Visibility: 6mi
Dew Point: 30°   Wind: 9mph
Humidity: 15%   Direction: 10°N
Pressure: 30"   Gusts: NA
Location:  22.26°S, 131.8°E
Report Text: YBAS 251800Z AUTO 01008KT 9999 // NCD 28/M01 Q1016
Loading
Personal Weather Stations






























Interactive Weather Map
Tropical Storm Tracking
New forecast layout! Learn more

10-Day Weather Forecast

Advertisements
Track Severe Weather on mobile